Time;durP1;ratioP1;P1;durP2;ratioP2;P2;SDS_P1;SDS_P2;PMS_P1;PMS_P2;Temp;Humidity;BMP_temperature;BMP_pressure;BME280_temperature;BME280_humidity;BME280_pressure;Samples;Min_cycle;Max_cycle;Signal;HPM_P1;HPM_P2
2024/04/12 00:00:21;;;;;;;18.02;10.80;;;16.80;88.50;;;;;;4473042;26;20014;-46
2024/04/12 00:03:06;;;;;;;18.13;10.90;;;16.80;88.50;;;;;;4472954;26;20487;-43
2024/04/12 00:05:47;;;;;;;16.77;11.18;;;16.80;88.50;;;;;;4472819;26;20140;-46
2024/04/12 00:08:31;;;;;;;17.67;11.13;;;16.80;88.50;;;;;;4473218;26;20023;-46
2024/04/12 00:11:11;;;;;;;16.27;10.82;;;16.70;88.60;;;;;;4473041;26;20010;-50
2024/04/12 00:13:58;;;;;;;18.63;11.40;;;16.80;88.50;;;;;;4472545;26;20053;-46
2024/04/12 00:16:43;;;;;;;16.30;10.38;;;16.70;88.50;;;;;;4488524;26;20014;-47
2024/04/12 00:19:30;;;;;;;18.83;12.30;;;16.70;88.40;;;;;;4443735;26;20457;-47
2024/04/12 00:22:10;;;;;;;17.17;11.77;;;16.80;88.60;;;;;;4443555;26;20327;-48
2024/04/12 00:24:54;;;;;;;20.92;12.45;;;16.70;88.60;;;;;;4443629;26;20011;-47
2024/04/12 00:27:37;;;;;;;21.25;13.00;;;16.70;88.70;;;;;;4443218;26;20364;-46
2024/04/12 00:33:19;;;;;;;18.52;12.20;;;16.70;88.70;;;;;;4442352;26;20015;-47
2024/04/12 00:36:07;;;;;;;20.05;12.43;;;16.70;88.70;;;;;;4443031;26;20015;-50
2024/04/12 00:38:47;;;;;;;22.25;12.98;;;16.70;88.80;;;;;;4443353;26;20019;-48
2024/04/12 00:41:30;;;;;;;19.50;14.00;;;16.70;88.80;;;;;;4442833;26;20519;-48
2024/04/12 00:44:11;;;;;;;20.80;12.48;;;16.70;88.90;;;;;;4443607;26;20090;-49
2024/04/12 00:46:59;;;;;;;18.58;12.70;;;16.70;88.90;;;;;;4443921;26;20019;-46
2024/04/12 00:49:49;;;;;;;20.25;12.93;;;16.70;88.90;;;;;;4412309;26;20055;-48
2024/04/12 00:52:34;;;;;;;19.65;13.02;;;16.70;89.00;;;;;;4434411;26;20019;-46
2024/04/12 00:55:14;;;;;;;18.17;12.40;;;16.70;89.00;;;;;;4443154;26;20457;-47
2024/04/12 00:57:59;;;;;;;18.45;12.05;;;16.70;89.00;;;;;;4443384;26;20019;-46
2024/04/12 01:00:46;;;;;;;20.13;12.82;;;16.70;89.00;;;;;;4442807;26;20015;-46
2024/04/12 01:03:33;;;;;;;17.10;11.05;;;16.70;89.10;;;;;;4442633;26;20011;-46
2024/04/12 01:06:15;;;;;;;17.40;11.55;;;16.70;89.10;;;;;;4442766;26;20077;-47
2024/04/12 01:09:10;;;;;;;16.45;11.82;;;16.70;89.10;;;;;;4441324;26;20081;-49
2024/04/12 01:11:51;;;;;;;17.38;11.57;;;16.70;89.20;;;;;;4442072;26;20070;-46
2024/04/12 01:14:33;;;;;;;18.35;11.38;;;16.70;89.20;;;;;;4442883;26;20019;-46
2024/04/12 01:17:14;;;;;;;14.07;9.10;;;16.70;89.30;;;;;;4446388;26;20080;-48
2024/04/12 01:20:00;;;;;;;16.00;10.45;;;16.70;89.20;;;;;;4471959;26;20081;-47
2024/04/12 01:22:44;;;;;;;15.50;9.98;;;16.70;89.30;;;;;;4472237;26;20018;-46
2024/04/12 01:25:31;;;;;;;13.90;9.45;;;16.70;89.30;;;;;;4501237;26;20439;-48
2024/04/12 01:28:12;;;;;;;14.18;9.30;;;16.70;89.30;;;;;;4501719;26;20087;-46
2024/04/12 01:30:59;;;;;;;15.43;10.03;;;16.70;89.30;;;;;;4466916;26;20018;-47
2024/04/12 01:33:40;;;;;;;13.63;9.52;;;16.70;89.40;;;;;;4472350;26;20053;-46
2024/04/12 01:36:25;;;;;;;12.37;9.47;;;16.70;89.30;;;;;;4484277;26;20071;-41
2024/04/12 01:39:11;;;;;;;16.48;10.65;;;16.70;89.40;;;;;;4483242;26;20013;-40
2024/04/12 01:41:57;;;;;;;13.88;9.82;;;16.70;89.40;;;;;;4472228;26;20084;-40
2024/04/12 01:44:38;;;;;;;15.65;9.27;;;16.70;89.50;;;;;;4472046;26;20027;-40
2024/04/12 01:47:20;;;;;;;14.68;10.25;;;16.70;89.40;;;;;;4472164;26;20014;-41
2024/04/12 01:50:02;;;;;;;16.15;11.07;;;16.70;89.40;;;;;;4472295;26;20018;-41
2024/04/12 01:52:53;;;;;;;;;;;16.70;89.60;;;;;;4472199;26;20014;-47
2024/04/12 01:55:34;;;;;;;19.23;10.80;;;16.70;89.70;;;;;;4470596;26;19999;-44
2024/04/12 01:58:20;;;;;;;17.85;11.73;;;16.70;89.40;;;;;;4471075;26;20054;-47
2024/04/12 02:01:02;;;;;;;18.83;11.73;;;16.70;89.70;;;;;;4471356;26;20014;-47
2024/04/12 02:03:45;;;;;;;;;;;16.70;89.80;;;;;;4472213;26;20076;-48
2024/04/12 02:06:27;;;;;;;17.45;11.38;;;16.70;89.80;;;;;;4471818;26;19997;-48
2024/04/12 02:09:14;;;;;;;18.40;12.30;;;16.70;89.50;;;;;;4471903;26;20015;-46
2024/04/12 02:11:57;;;;;;;17.55;11.13;;;16.70;89.80;;;;;;4470656;26;20014;-46
2024/04/12 02:14:43;;;;;;;17.77;11.88;;;16.70;89.80;;;;;;4471133;26;20441;-47
2024/04/12 02:17:24;;;;;;;19.90;12.52;;;16.70;89.80;;;;;;4498446;26;20010;-48
2024/04/12 02:20:10;;;;;;;18.08;11.65;;;16.70;89.90;;;;;;4500862;26;20017;-48
2024/04/12 02:22:50;;;;;;;18.35;12.25;;;16.70;90.00;;;;;;4501097;26;20064;-48
2024/04/12 02:25:35;;;;;;;22.23;12.68;;;16.70;89.90;;;;;;4472018;26;20013;-47
2024/04/12 02:28:16;;;;;;;18.88;12.68;;;16.70;90.00;;;;;;4470894;26;20014;-47
2024/04/12 02:31:08;;;;;;;18.05;11.63;;;16.70;90.00;;;;;;4471157;26;20029;-46
2024/04/12 02:33:54;;;;;;;18.98;11.93;;;16.70;90.00;;;;;;4473889;26;20053;-49
2024/04/12 02:36:34;;;;;;;20.33;12.25;;;16.70;90.00;;;;;;4500395;26;20448;-50
2024/04/12 02:39:22;;;;;;;18.05;11.52;;;16.70;89.90;;;;;;4499132;26;20013;-46
2024/04/12 02:42:03;;;;;;;20.85;13.10;;;16.60;89.80;;;;;;4500656;26;20075;-47
2024/04/12 02:44:46;;;;;;;19.87;13.47;;;16.70;90.00;;;;;;4497312;26;20018;-50
2024/04/12 02:47:29;;;;;;;20.25;14.13;;;16.70;90.00;;;;;;4497345;26;20060;-46
2024/04/12 02:50:15;;;;;;;22.35;12.50;;;16.60;90.00;;;;;;4500388;26;20080;-47
2024/04/12 02:52:55;;;;;;;17.88;12.13;;;16.70;90.00;;;;;;4500064;26;20014;-46
2024/04/12 02:55:40;;;;;;;20.52;12.80;;;16.70;90.00;;;;;;4477724;26;20044;-48
2024/04/12 02:58:21;;;;;;;18.73;12.90;;;16.70;90.00;;;;;;4470891;26;20014;-46
2024/04/12 03:01:05;;;;;;;19.00;12.00;;;16.60;90.00;;;;;;4470958;26;20017;-46
2024/04/12 03:03:49;;;;;;;19.60;12.18;;;16.70;90.00;;;;;;4468931;26;20076;-47
2024/04/12 03:06:35;;;;;;;19.00;12.35;;;16.70;90.00;;;;;;4469825;26;20024;-40
2024/04/12 03:09:18;;;;;;;17.10;11.75;;;16.70;90.10;;;;;;4466085;26;20072;-41
2024/04/12 03:12:01;;;;;;;18.88;12.80;;;16.60;90.00;;;;;;4491493;26;20009;-40
2024/04/12 03:14:42;;;;;;;16.60;11.98;;;16.70;90.00;;;;;;4491131;26;20019;-40
2024/04/12 03:17:25;;;;;;;16.75;10.30;;;16.70;90.00;;;;;;4471204;26;20088;-40
2024/04/12 03:20:08;;;;;;;20.70;12.75;;;16.60;90.00;;;;;;4470592;26;20453;-40
2024/04/12 03:22:52;;;;;;;18.15;12.20;;;16.60;90.10;;;;;;4470453;26;20047;-40
2024/04/12 03:25:37;;;;;;;16.90;11.30;;;16.60;90.10;;;;;;4491172;26;20077;-40
2024/04/12 03:28:20;;;;;;;20.65;13.57;;;16.60;90.00;;;;;;4499770;26;20017;-40
2024/04/12 03:31:07;;;;;;;21.55;13.85;;;16.60;90.10;;;;;;4500216;26;20396;-40
2024/04/12 03:33:50;;;;;;;17.95;12.35;;;16.60;90.10;;;;;;4470790;26;20080;-40
2024/04/12 03:36:53;;;;;;;19.05;12.85;;;16.60;90.10;;;;;;4470412;26;20010;-40
2024/04/12 03:39:38;;;;;;;20.27;13.80;;;16.60;90.10;;;;;;4469683;26;20484;-40
2024/04/12 03:42:18;;;;;;;19.55;14.15;;;16.60;90.10;;;;;;4469815;26;20014;-40
2024/04/12 03:45:12;;;;;;;20.88;13.23;;;16.70;90.20;;;;;;4481413;26;20010;-40
2024/04/12 03:47:54;;;;;;;25.17;15.50;;;16.60;90.20;;;;;;4498598;26;20334;-41
2024/04/12 03:50:37;;;;;;;21.67;15.15;;;16.60;90.20;;;;;;4469634;26;20011;-40
2024/04/12 03:53:20;;;;;;;24.05;15.55;;;16.60;90.30;;;;;;4470253;26;20564;-40
2024/04/12 03:56:03;;;;;;;19.88;14.27;;;16.60;90.30;;;;;;4469561;26;20044;-40
2024/04/12 03:58:46;;;;;;;22.90;13.95;;;16.60;90.20;;;;;;4476662;26;20330;-41
2024/04/12 04:01:31;;;;;;;21.50;14.25;;;16.60;90.20;;;;;;4499397;26;20075;-40
2024/04/12 04:04:17;;;;;;;20.27;13.80;;;16.60;90.30;;;;;;4499702;26;20014;-41
2024/04/12 04:07:02;;;;;;;22.10;14.43;;;16.60;90.30;;;;;;4494487;26;20761;-40
2024/04/12 04:09:45;;;;;;;17.67;13.05;;;16.60;90.30;;;;;;4488358;26;20071;-40
2024/04/12 04:12:28;;;;;;;15.25;11.15;;;16.60;90.30;;;;;;4499225;26;20009;-40
2024/04/12 04:15:09;;;;;;;16.50;11.55;;;16.60;90.30;;;;;;4499448;26;20073;-40
2024/04/12 04:17:53;;;;;;;17.00;10.50;;;16.60;90.30;;;;;;4499357;26;20014;-40
2024/04/12 04:20:39;;;;;;;13.10;9.88;;;16.60;90.30;;;;;;4470072;26;20102;-46
2024/04/12 04:23:22;;;;;;;16.65;11.23;;;16.60;90.20;;;;;;4469686;26;20083;-46
2024/04/12 04:26:08;;;;;;;12.88;10.27;;;16.60;90.30;;;;;;4471553;26;20022;-47
2024/04/12 04:28:51;;;;;;;13.13;9.80;;;16.70;90.30;;;;;;4478419;26;20010;-46
2024/04/12 04:31:44;;;;;;;13.82;9.88;;;16.60;90.40;;;;;;4473182;26;20416;-48
2024/04/12 04:34:28;;;;;;;14.75;9.85;;;16.60;90.40;;;;;;4471761;26;20010;-45
2024/04/12 04:37:08;;;;;;;14.00;10.43;;;16.60;90.30;;;;;;4472169;26;20015;-40
2024/04/12 04:39:52;;;;;;;12.88;10.48;;;16.60;90.30;;;;;;4492137;26;20076;-40
2024/04/12 04:42:37;;;;;;;14.57;11.15;;;16.60;90.30;;;;;;4502100;26;20013;-41
2024/04/12 04:45:21;;;;;;;14.98;11.30;;;16.60;90.30;;;;;;4502106;26;20525;-40
2024/04/12 04:48:05;;;;;;;15.82;11.63;;;16.60;90.30;;;;;;4502827;26;20014;-40
2024/04/12 04:50:45;;;;;;;14.90;11.40;;;16.60;90.30;;;;;;4472671;26;20017;-41
2024/04/12 04:53:29;;;;;;;13.55;10.70;;;16.60;90.30;;;;;;4472271;26;20010;-40
2024/04/12 04:56:12;;;;;;;18.75;12.52;;;16.60;90.30;;;;;;4472532;26;20019;-40
2024/04/12 04:58:58;;;;;;;16.63;12.30;;;16.60;90.30;;;;;;4455436;26;20018;-40
2024/04/12 05:01:38;;;;;;;15.95;11.98;;;16.60;90.40;;;;;;4502219;26;20014;-40
2024/04/12 05:04:22;;;;;;;15.25;11.45;;;16.60;90.30;;;;;;4501706;26;20014;-44
2024/04/12 05:07:03;;;;;;;14.43;11.18;;;16.60;90.30;;;;;;4498334;26;20009;-40
2024/04/12 05:09:46;;;;;;;14.57;9.82;;;16.60;90.30;;;;;;4489585;26;20075;-41
2024/04/12 05:12:28;;;;;;;16.73;12.60;;;16.60;90.40;;;;;;4502069;26;20013;-41
2024/04/12 05:15:48;;;;;;;13.48;10.70;;;16.60;90.50;;;;;;4502096;26;20033;-40
2024/04/12 05:18:14;;;;;;;16.02;11.38;;;16.70;90.60;;;;;;4492470;26;20760;-41
2024/04/12 05:20:57;;;;;;;14.55;10.10;;;16.70;90.50;;;;;;4472596;26;20370;-41
2024/04/12 05:23:39;;;;;;;13.35;10.30;;;16.70;90.50;;;;;;4471351;26;20446;-46
2024/04/12 05:26:22;;;;;;;13.45;10.30;;;16.70;90.50;;;;;;4471139;26;20013;-47
2024/04/12 05:29:06;;;;;;;11.77;9.75;;;16.70;90.60;;;;;;4499069;26;20021;-45
2024/04/12 05:31:52;;;;;;;14.15;9.80;;;16.70;90.50;;;;;;4471944;26;20076;-46
2024/04/12 05:34:36;;;;;;;11.32;8.80;;;16.70;90.40;;;;;;4471844;26;20015;-47
2024/04/12 05:37:20;;;;;;;13.23;9.50;;;16.70;90.40;;;;;;4469977;26;20013;-50
2024/04/12 05:40:03;;;;;;;12.45;8.90;;;16.60;90.50;;;;;;4472000;26;20022;-50
2024/04/12 05:42:46;;;;;;;11.00;9.07;;;16.60;90.50;;;;;;4470746;26;20334;-50
2024/04/12 05:45:27;;;;;;;10.77;8.27;;;16.60;90.60;;;;;;4469792;26;20015;-45
2024/04/12 05:48:15;;;;;;;14.07;8.45;;;16.60;90.50;;;;;;4485196;26;20076;-48
2024/04/12 05:50:57;;;;;;;10.60;7.88;;;16.60;90.50;;;;;;4471113;26;20014;-46
2024/04/12 05:53:41;;;;;;;10.55;8.55;;;16.60;90.40;;;;;;4471561;26;20532;-47
2024/04/12 05:56:25;;;;;;;11.52;8.65;;;16.60;90.40;;;;;;4471272;26;20010;-45
2024/04/12 05:59:13;;;;;;;8.63;7.28;;;16.60;90.40;;;;;;4469608;26;20500;-50
2024/04/12 06:01:54;;;;;;;8.52;6.78;;;16.60;90.40;;;;;;4472120;26;20465;-50
2024/04/12 06:04:39;;;;;;;10.35;7.78;;;16.60;90.40;;;;;;4471999;26;20019;-46
2024/04/12 06:07:20;;;;;;;8.90;6.75;;;16.60;90.50;;;;;;4471064;26;20036;-51
2024/04/12 06:10:04;;;;;;;8.32;6.65;;;16.60;90.50;;;;;;4469298;26;20051;-49
2024/04/12 06:12:45;;;;;;;7.45;6.57;;;16.60;90.50;;;;;;4471869;26;20017;-44
2024/04/12 06:15:36;;;;;;;7.07;4.88;;;16.60;90.50;;;;;;4471635;26;20015;-43
2024/04/12 06:18:18;;;;;;;6.63;5.10;;;16.60;90.40;;;;;;4483551;26;20014;-43
2024/04/12 06:21:04;;;;;;;9.80;6.70;;;16.60;90.70;;;;;;4514764;26;20469;-47
2024/04/12 06:23:49;;;;;;;4.28;3.10;;;16.60;90.70;;;;;;4501099;26;20013;-45
2024/04/12 06:26:31;;;;;;;7.07;4.57;;;16.60;90.70;;;;;;4490447;26;20018;-46
2024/04/12 06:29:16;;;;;;;6.25;4.03;;;16.70;90.90;;;;;;4498431;26;20104;-47
2024/04/12 06:32:06;;;;;;;8.48;5.95;;;16.60;90.80;;;;;;4501121;26;20083;-51
2024/04/12 06:34:48;;;;;;;7.07;5.25;;;16.60;90.80;;;;;;4501450;26;20014;-51
2024/04/12 06:37:34;;;;;;;4.57;3.75;;;16.60;90.80;;;;;;4488425;26;20014;-48
2024/04/12 06:40:15;;;;;;;6.20;5.30;;;16.60;90.70;;;;;;4471332;26;20084;-51
2024/04/12 06:43:05;;;;;;;7.65;5.07;;;16.60;90.70;;;;;;4485724;26;20049;-50
2024/04/12 06:45:56;;;;;;;6.60;5.57;;;16.60;90.70;;;;;;4469386;26;20088;-50
2024/04/12 06:48:41;;;;;;;6.78;5.65;;;16.60;90.70;;;;;;4489539;26;20350;-50
2024/04/12 06:51:24;;;;;;;7.15;4.72;;;16.60;90.70;;;;;;4500766;26;20019;-45
2024/04/12 06:54:11;;;;;;;6.68;4.68;;;16.60;91.10;;;;;;4500809;26;20449;-44
2024/04/12 06:56:55;;;;;;;9.63;6.50;;;16.60;90.80;;;;;;4498279;26;20047;-46
2024/04/12 06:59:35;;;;;;;8.95;5.85;;;16.60;90.90;;;;;;4500022;26;20018;-44
2024/04/12 07:02:23;;;;;;;5.68;3.97;;;16.60;90.90;;;;;;4500801;26;20052;-45
2024/04/12 07:05:15;;;;;;;9.77;5.80;;;16.60;90.80;;;;;;4500161;26;20079;-44
2024/04/12 07:07:58;;;;;;;6.50;5.00;;;16.60;90.90;;;;;;4482066;26;20080;-44
2024/04/12 07:10:41;;;;;;;11.85;6.28;;;16.60;91.30;;;;;;4485264;26;21202;-43
2024/04/12 07:13:27;;;;;;;9.35;6.50;;;16.60;91.00;;;;;;4487435;26;20102;-44
2024/04/12 07:16:07;;;;;;;7.60;5.88;;;16.60;91.00;;;;;;4490969;26;20014;-48
2024/04/12 07:18:50;;;;;;;11.48;6.05;;;16.60;91.10;;;;;;4488904;26;20019;-49
2024/04/12 07:21:35;;;;;;;10.65;6.50;;;16.60;91.40;;;;;;4500259;26;20010;-47
2024/04/12 07:24:19;;;;;;;11.55;6.90;;;16.70;91.60;;;;;;4499087;26;20139;-47
2024/04/12 07:27:02;;;;;;;11.27;7.63;;;16.70;91.60;;;;;;4491567;26;20080;-47
2024/04/12 07:29:46;;;;;;;8.07;6.07;;;16.70;91.50;;;;;;4488451;26;20048;-44
2024/04/12 07:32:35;;;;;;;11.38;8.18;;;16.80;91.50;;;;;;4476901;26;20011;-44
2024/04/12 07:35:24;;;;;;;9.57;5.72;;;16.80;91.40;;;;;;4481976;26;20079;-47
2024/04/12 07:38:08;;;;;;;8.98;5.97;;;16.90;91.40;;;;;;4477055;26;20081;-45
2024/04/12 07:40:52;;;;;;;3.45;3.08;;;17.00;91.20;;;;;;4470837;26;20018;-45
2024/04/12 07:43:42;;;;;;;8.98;5.22;;;17.00;91.30;;;;;;4469815;26;20014;-43
2024/04/12 07:46:27;;;;;;;10.25;7.13;;;17.10;91.30;;;;;;4471219;26;20025;-52
2024/04/12 07:49:10;;;;;;;10.52;7.57;;;17.20;91.30;;;;;;4473454;26;20022;-44
2024/04/12 07:51:58;;;;;;;8.05;5.20;;;17.30;91.00;;;;;;4470117;26;20031;-50
2024/04/12 07:54:41;;;;;;;8.52;5.47;;;17.30;90.80;;;;;;4468356;26;20034;-48
2024/04/12 07:57:25;;;;;;;9.30;6.63;;;17.30;90.70;;;;;;4490039;26;20009;-45
2024/04/12 08:00:16;;;;;;;7.78;6.25;;;17.40;90.60;;;;;;4480540;26;20079;-47
2024/04/12 08:02:57;;;;;;;11.68;7.20;;;17.40;90.50;;;;;;4502641;26;20010;-46
2024/04/12 08:05:59;;;;;;;12.82;7.75;;;17.50;90.50;;;;;;4501384;26;20020;-45
2024/04/12 08:08:43;;;;;;;9.98;7.40;;;17.50;90.40;;;;;;4492869;26;20530;-48
2024/04/12 08:11:35;;;;;;;9.25;7.25;;;17.50;90.30;;;;;;4501742;26;20017;-50
2024/04/12 08:14:20;;;;;;;11.25;7.40;;;17.60;90.10;;;;;;4494216;26;20029;-47
2024/04/12 08:17:14;;;;;;;9.15;4.90;;;17.60;90.00;;;;;;4483787;26;20076;-45
2024/04/12 08:19:57;;;;;;;7.07;4.85;;;17.60;90.00;;;;;;4472790;26;20010;-47
2024/04/12 08:22:42;;;;;;;10.45;6.65;;;17.60;90.00;;;;;;4473279;26;20018;-49
2024/04/12 08:25:26;;;;;;;6.05;5.05;;;17.60;89.90;;;;;;4473204;26;20014;-47
2024/04/12 08:28:10;;;;;;;7.55;5.78;;;17.60;89.80;;;;;;4491159;26;20068;-51
2024/04/12 08:30:51;;;;;;;7.82;5.45;;;17.70;89.70;;;;;;4471793;26;20014;-49
2024/04/12 08:33:40;;;;;;;8.18;5.60;;;17.70;89.60;;;;;;4479288;26;20014;-50
2024/04/12 08:36:24;;;;;;;8.10;5.18;;;17.70;89.40;;;;;;4492574;26;20088;-47
2024/04/12 08:39:25;;;;;;;7.63;5.40;;;17.80;89.10;;;;;;4496563;26;20396;-48
2024/04/12 08:42:10;;;;;;;11.30;4.85;;;17.80;88.70;;;;;;4490302;26;20341;-50
2024/04/12 08:44:51;;;;;;;6.43;5.00;;;17.90;88.40;;;;;;4472200;26;20051;-46
2024/04/12 08:47:36;;;;;;;;;;;17.90;87.90;;;;;;4490741;26;20018;-47
2024/04/12 08:50:23;;;;;;;6.88;3.53;;;18.00;87.70;;;;;;4478326;26;20294;-48
2024/04/12 08:53:11;;;;;;;4.35;3.42;;;18.10;86.80;;;;;;4484897;26;20076;-47
2024/04/12 08:55:52;;;;;;;3.38;3.05;;;18.10;85.90;;;;;;4492971;26;20025;-51
2024/04/12 08:58:36;;;;;;;1.77;1.58;;;18.20;85.10;;;;;;4495997;26;20010;-49
2024/04/12 09:01:18;;;;;;;6.13;3.83;;;18.20;84.00;;;;;;4501861;26;20071;-53
2024/04/12 09:04:13;;;;;;;4.53;3.10;;;18.20;84.00;;;;;;4502348;26;20017;-53
2024/04/12 09:06:58;;;;;;;4.10;3.72;;;18.30;82.70;;;;;;4499700;26;20013;-52
2024/04/12 09:09:41;;;;;;;4.10;2.55;;;18.30;83.40;;;;;;4472071;26;20551;-50
2024/04/12 09:12:24;;;;;;;5.30;3.30;;;18.30;81.80;;;;;;4472229;26;20076;-47
2024/04/12 09:15:13;;;;;;;5.05;2.60;;;18.30;81.10;;;;;;4472030;26;20018;-50
2024/04/12 09:18:00;;;;;;;2.70;2.45;;;18.30;80.60;;;;;;4489540;26;20081;-49
2024/04/12 09:20:44;;;;;;;2.92;2.28;;;18.30;80.30;;;;;;4498997;26;20075;-51
2024/04/12 09:23:32;;;;;;;4.13;3.00;;;18.30;79.80;;;;;;4485909;26;20010;-46
2024/04/12 09:26:39;;;;;;;6.20;2.45;;;18.40;79.50;;;;;;4472239;26;20080;-49
2024/04/12 09:29:26;;;;;;;3.03;2.72;;;18.40;79.10;;;;;;4471573;26;20389;-50
2024/04/12 09:35:14;;;;;;;7.43;3.05;;;18.40;78.20;;;;;;4470184;26;20429;-47
2024/04/12 09:38:05;;;;;;;3.38;2.20;;;18.40;78.30;;;;;;4473872;26;20057;-46
2024/04/12 09:41:02;;;;;;;2.27;2.13;;;18.40;76.90;;;;;;4472241;26;20334;-43
2024/04/12 09:43:47;;;;;;;4.82;2.13;;;18.40;76.60;;;;;;4472042;26;20755;-46
2024/04/12 09:46:46;;;;;;;2.97;1.42;;;18.40;76.10;;;;;;4472716;26;20014;-46
2024/04/12 10:37:39;;;;;;;6.50;3.28;;;18.60;72.70;;;;;;4472025;26;20076;-48
2024/04/12 10:40:23;;;;;;;8.00;3.55;;;18.60;73.60;;;;;;4470628;26;20044;-48
2024/04/12 10:43:13;;;;;;;5.35;3.20;;;18.70;74.40;;;;;;4484007;26;20013;-51
2024/04/12 10:46:05;;;;;;;6.15;3.40;;;18.70;75.10;;;;;;4501007;26;20049;-50
2024/04/12 10:48:48;;;;;;;4.30;2.72;;;18.70;75.40;;;;;;4498183;26;20087;-49
2024/04/12 10:51:28;;;;;;;6.40;2.58;;;18.80;75.10;;;;;;4500415;26;20087;-51
2024/04/12 10:54:14;;;;;;;4.82;3.40;;;18.80;75.40;;;;;;4472541;26;20014;-50
2024/04/12 10:56:56;;;;;;;10.27;4.55;;;18.80;74.30;;;;;;4468927;26;20018;-51
2024/04/12 10:59:42;;;;;;;5.60;2.92;;;18.80;74.50;;;;;;4471219;26;20577;-52
2024/04/12 11:02:25;;;;;;;8.77;3.63;;;18.80;74.20;;;;;;4476002;26;20441;-48
2024/04/12 11:05:24;;;;;;;4.28;3.30;;;18.90;74.10;;;;;;4500105;26;20017;-52
2024/04/12 11:08:15;;;;;;;6.22;2.42;;;18.90;74.10;;;;;;4482730;26;20014;-43
2024/04/12 11:11:15;;;;;;;6.22;2.10;;;18.90;74.00;;;;;;4467001;26;20388;-47
2024/04/12 11:13:59;;;;;;;4.85;2.30;;;18.90;74.00;;;;;;4469562;26;20040;-48
2024/04/12 11:31:47;;;;;;;6.07;2.30;;;19.00;73.70;;;;;;4470339;26;20077;-48
2024/04/12 11:34:32;;;;;;;5.85;2.28;;;19.00;73.70;;;;;;4472508;26;20022;-44
2024/04/12 11:37:24;;;;;;;5.03;2.00;;;19.00;73.10;;;;;;4492617;26;20858;-47
2024/04/12 11:40:15;;;;;;;4.88;2.50;;;19.00;72.80;;;;;;4495418;26;20087;-52
2024/04/12 11:42:58;;;;;;;2.63;2.20;;;19.00;73.10;;;;;;4501119;26;20026;-46
2024/04/12 11:45:41;;;;;;;3.33;1.98;;;19.00;73.20;;;;;;4487414;26;20017;-51
2024/04/12 11:48:28;;;;;;;8.17;2.30;;;19.10;73.30;;;;;;4493318;26;20026;-54
2024/04/12 11:51:09;;;;;;;7.63;2.78;;;19.10;73.30;;;;;;4477600;26;20735;-50
2024/04/12 11:53:54;;;;;;;6.93;2.50;;;19.10;73.00;;;;;;4472021;26;20014;-51
2024/04/12 11:56:35;;;;;;;4.47;1.92;;;19.10;73.00;;;;;;4484794;26;20081;-50
2024/04/12 11:59:18;;;;;;;4.38;1.95;;;19.10;72.70;;;;;;4481629;26;20013;-51
2024/04/12 12:01:59;;;;;;;5.28;2.13;;;19.10;72.10;;;;;;4502035;26;20326;-53
2024/04/12 12:04:45;;;;;;;4.40;1.98;;;19.10;73.50;;;;;;4473767;26;20018;-51
2024/04/12 12:07:26;;;;;;;7.65;2.33;;;19.10;72.80;;;;;;4495385;26;20019;-51
2024/04/12 12:10:12;;;;;;;5.85;2.88;;;19.10;72.80;;;;;;4502604;26;20033;-48
2024/04/12 12:12:54;;;;;;;8.10;2.42;;;19.20;73.50;;;;;;4494145;26;20013;-52
2024/04/12 12:15:36;;;;;;;14.02;2.95;;;19.20;72.80;;;;;;4502433;26;20042;-54
2024/04/12 12:18:16;;;;;;;5.20;2.38;;;19.20;72.80;;;;;;4486604;26;20051;-52
2024/04/12 12:21:00;;;;;;;6.38;2.90;;;19.20;72.90;;;;;;4473116;26;20076;-48
2024/04/12 12:23:40;;;;;;;7.63;2.58;;;19.20;72.90;;;;;;4473308;26;20018;-44
2024/04/12 12:26:25;;;;;;;5.72;2.70;;;19.20;72.50;;;;;;4472484;26;20098;-48
2024/04/12 12:29:06;;;;;;;7.30;2.47;;;19.20;72.80;;;;;;4497067;26;20010;-51
2024/04/12 12:31:49;;;;;;;8.93;2.65;;;19.20;72.70;;;;;;4493764;26;20075;-44
2024/04/12 12:34:33;;;;;;;3.25;2.33;;;19.20;72.90;;;;;;4497651;26;20359;-48
2024/04/12 12:37:15;;;;;;;4.22;2.00;;;19.30;72.90;;;;;;4494191;26;20129;-50
2024/04/12 12:39:55;;;;;;;9.85;3.03;;;19.20;72.60;;;;;;4480226;26;20401;-46
2024/04/12 12:42:43;;;;;;;5.50;2.50;;;19.20;73.10;;;;;;4500205;26;20078;-46
2024/04/12 12:45:24;;;;;;;8.02;3.00;;;19.20;72.30;;;;;;4477664;26;20014;-45
2024/04/12 12:48:19;;;;;;;;;;;19.20;71.80;;;;;;4476150;26;20068;-46
2024/04/12 12:51:00;;;;;;;7.07;3.00;;;19.30;72.40;;;;;;4496586;26;19932;-53
2024/04/12 12:53:43;;;;;;;7.13;2.47;;;19.30;72.90;;;;;;4501720;26;20035;-49
2024/04/12 12:56:23;;;;;;;8.75;2.58;;;19.30;73.10;;;;;;4500635;26;20047;-49
2024/04/12 12:59:09;;;;;;;7.85;2.78;;;19.30;72.90;;;;;;4502113;26;20017;-50
2024/04/12 13:01:51;;;;;;;7.35;2.40;;;19.30;73.10;;;;;;4477271;26;20145;-51
2024/04/12 13:04:35;;;;;;;5.40;2.40;;;19.30;73.70;;;;;;4470297;26;20015;-47
2024/04/12 13:07:23;;;;;;;5.38;2.35;;;19.30;72.80;;;;;;4471826;26;20041;-47
2024/04/12 13:10:05;;;;;;;6.45;2.92;;;19.40;73.20;;;;;;4456265;26;20034;-49
2024/04/12 13:12:52;;;;;;;7.07;2.80;;;19.40;73.10;;;;;;4472118;26;20018;-48
2024/04/12 13:15:37;;;;;;;7.72;2.80;;;19.40;72.70;;;;;;4471879;26;20014;-51
2024/04/12 13:18:20;;;;;;;5.55;2.67;;;19.40;72.80;;;;;;4472252;26;20013;-49
2024/04/12 13:21:04;;;;;;;5.05;2.13;;;19.40;72.70;;;;;;4481456;26;20014;-49
2024/04/12 13:23:48;;;;;;;9.38;2.35;;;19.50;73.10;;;;;;4499333;26;20026;-51
2024/04/12 13:26:33;;;;;;;5.40;1.48;;;19.50;73.50;;;;;;4499971;26;20051;-50
2024/04/12 13:29:16;;;;;;;5.03;1.77;;;19.50;72.50;;;;;;4501447;26;20349;-48
2024/04/12 13:32:00;;;;;;;4.95;2.20;;;19.50;72.30;;;;;;4474140;26;20504;-48
2024/04/12 13:34:43;;;;;;;9.90;2.58;;;19.50;72.20;;;;;;4472145;26;20018;-46
2024/04/12 13:37:26;;;;;;;5.47;2.60;;;19.50;72.50;;;;;;4471560;26;20017;-46
2024/04/12 13:40:17;;;;;;;5.03;2.15;;;19.50;72.20;;;;;;4469714;26;20018;-44
2024/04/12 13:42:59;;;;;;;7.03;1.83;;;19.50;71.50;;;;;;4470601;26;20055;-44
2024/04/12 13:51:49;;;;;;;4.88;2.45;;;19.60;71.80;;;;;;4499934;26;20088;-49
2024/04/12 13:54:32;;;;;;;4.35;1.80;;;19.60;71.60;;;;;;4501311;26;20076;-52
2024/04/12 13:57:17;;;;;;;7.22;2.33;;;19.50;71.80;;;;;;4479076;26;20014;-51
2024/04/12 14:00:01;;;;;;;5.32;1.90;;;19.60;72.00;;;;;;4471515;26;20413;-48
2024/04/12 14:02:54;;;;;;;5.25;1.75;;;19.60;72.10;;;;;;4486390;26;20017;-52
2024/04/12 14:05:37;;;;;;;5.13;1.80;;;19.60;72.20;;;;;;4471534;26;20010;-50
2024/04/12 14:08:20;;;;;;;5.18;2.10;;;19.60;71.40;;;;;;4471509;26;20081;-54
2024/04/12 14:11:01;;;;;;;6.53;1.60;;;19.60;71.60;;;;;;4471889;26;20010;-48
2024/04/12 14:13:45;;;;;;;10.18;2.45;;;19.60;71.30;;;;;;4471428;26;20105;-48
2024/04/12 14:16:29;;;;;;;11.35;2.83;;;19.60;71.70;;;;;;4472615;26;20008;-46
2024/04/12 14:19:17;;;;;;;8.68;2.33;;;19.60;72.00;;;;;;4500455;26;20075;-47
2024/04/12 14:22:00;;;;;;;13.15;2.85;;;19.60;71.80;;;;;;4501444;26;20012;-47
2024/04/12 14:25:01;;;;;;;7.82;2.95;;;19.60;71.80;;;;;;4500755;26;20017;-52
2024/04/12 14:27:46;;;;;;;5.25;2.05;;;19.60;71.60;;;;;;4473781;26;20014;-53
2024/04/12 14:30:28;;;;;;;8.82;3.25;;;19.60;72.00;;;;;;4469751;26;20535;-47
2024/04/12 14:33:10;;;;;;;7.40;2.70;;;19.60;71.90;;;;;;4471240;26;20018;-50
2024/04/12 14:35:50;;;;;;;9.65;2.95;;;19.60;72.00;;;;;;4470746;26;20018;-49
2024/04/12 14:38:38;;;;;;;8.25;3.28;;;19.60;72.50;;;;;;4471188;26;20019;-52
2024/04/12 14:41:20;;;;;;;6.93;2.72;;;19.60;72.50;;;;;;4467070;26;20018;-51
2024/04/12 14:44:06;;;;;;;11.32;3.38;;;19.60;72.00;;;;;;4466306;26;20014;-47
2024/04/12 14:46:47;;;;;;;9.65;2.90;;;19.60;72.30;;;;;;4488012;26;20079;-48
2024/04/12 14:49:29;;;;;;;10.55;3.33;;;19.60;72.10;;;;;;4501288;26;20014;-44
2024/04/12 14:52:11;;;;;;;8.75;2.50;;;19.60;72.40;;;;;;4500636;26;20075;-48
2024/04/12 14:54:57;;;;;;;9.52;3.33;;;19.60;72.00;;;;;;4500807;26;20014;-44
2024/04/12 14:57:46;;;;;;;12.05;3.47;;;19.60;72.40;;;;;;4478664;26;20026;-46
2024/04/12 15:00:29;;;;;;;8.57;3.45;;;19.60;72.00;;;;;;4457945;26;20044;-50
2024/04/12 15:48:13;;;;;;;10.55;3.42;;;19.50;72.90;;;;;;4499635;26;20021;-50
2024/04/12 15:50:56;;;;;;;12.02;4.13;;;19.50;73.10;;;;;;4474279;26;20014;-53
2024/04/12 15:53:36;;;;;;;11.52;4.10;;;19.50;72.80;;;;;;4469895;26;20080;-53
2024/04/12 16:11:15;;;;;;;9.40;3.67;;;19.50;72.80;;;;;;4468734;26;20084;-50
2024/04/12 16:13:58;;;;;;;10.45;3.08;;;19.40;72.80;;;;;;4469405;26;20018;-50
2024/04/12 16:16:40;;;;;;;13.75;3.55;;;19.40;72.50;;;;;;4487432;26;20381;-53
2024/04/12 16:19:26;;;;;;;8.32;3.15;;;19.40;72.30;;;;;;4468581;26;20480;-53
2024/04/12 16:22:06;;;;;;;13.82;3.80;;;19.40;72.40;;;;;;4471575;26;20014;-48
2024/04/12 16:24:49;;;;;;;9.68;3.00;;;19.40;72.70;;;;;;4472066;26;20077;-49